Time,TemperatureF,DewpointF,PressureIn,WindDirection,WindDirectionDegrees,WindSpeedMPH,WindSpeedGustMPH,Humidity,HourlyPrecipIn,Conditions,Clouds,dailyrainin,SoftwareType,DateUTC
2013-05-26 00:04:00,44.4,40.0,30.16,WSW,251,1.0,5.0,84,0.00,,,0.02,weatherlink.com 1.10,2013-05-26 04:04:00,
2013-05-26 00:19:00,44.2,39.0,30.16,NNW,329,0.0,6.0,83,0.00,,,0.02,weatherlink.com 1.10,2013-05-26 04:19:00,
2013-05-26 00:34:00,44.0,39.0,30.16,NNW,338,1.0,8.0,83,0.00,,,0.02,weatherlink.com 1.10,2013-05-26 04:34:00,
2013-05-26 00:49:00,43.8,39.0,30.16,WNW,291,4.0,5.0,83,0.00,,,0.02,weatherlink.com 1.10,2013-05-26 04:49:00,
2013-05-26 01:04:00,43.7,39.0,30.15,NW,315,3.0,7.0,83,0.00,,,0.02,weatherlink.com 1.10,2013-05-26 05:04:00,
2013-05-26 01:19:00,43.8,39.0,30.15,South,175,6.0,8.0,83,0.00,,,0.02,weatherlink.com 1.10,2013-05-26 05:19:00,
2013-05-26 01:34:00,43.9,39.0,30.14,NNW,327,4.0,8.0,83,0.00,,,0.02,weatherlink.com 1.10,2013-05-26 05:34:00,
2013-05-26 01:49:00,43.8,39.0,30.14,NW,313,2.0,6.0,83,0.00,,,0.02,weatherlink.com 1.10,2013-05-26 05:49:00,
2013-05-26 02:04:00,44.0,39.0,30.14,SE,126,1.0,9.0,83,0.00,,,0.02,weatherlink.com 1.10,2013-05-26 06:04:00,
2013-05-26 02:19:00,44.2,39.0,30.13,SSW,198,1.0,11.0,82,0.00,,,0.02,weatherlink.com 1.10,2013-05-26 06:19:00,
2013-05-26 02:34:00,44.1,39.0,30.13,SW,223,4.0,6.0,82,0.00,,,0.02,weatherlink.com 1.10,2013-05-26 06:34:00,
2013-05-26 02:49:00,44.3,39.0,30.13,SE,140,0.0,7.0,82,0.00,,,0.02,weatherlink.com 1.10,2013-05-26 06:49:00,
2013-05-26 03:04:00,44.2,39.0,30.13,SSE,159,0.0,8.0,82,0.00,,,0.02,weatherlink.com 1.10,2013-05-26 07:04:00,
2013-05-26 03:19:00,43.9,39.0,30.12,NW,324,0.0,6.0,83,0.00,,,0.02,weatherlink.com 1.10,2013-05-26 07:19:00,
2013-05-26 03:34:00,43.8,39.0,30.13,ENE,74,4.0,4.0,84,0.00,,,0.02,weatherlink.com 1.10,2013-05-26 07:34:00,
2013-05-26 03:49:00,44.3,39.0,30.12,NNW,345,1.0,7.0,82,0.00,,,0.02,weatherlink.com 1.10,2013-05-26 07:49:00,
2013-05-26 04:04:00,44.1,40.0,30.12,NNW,335,0.0,2.0,84,0.00,,,0.02,weatherlink.com 1.10,2013-05-26 08:04:00,
2013-05-26 04:19:00,44.4,39.0,30.12,NNW,331,2.0,7.0,82,0.00,,,0.02,weatherlink.com 1.10,2013-05-26 08:19:00,
2013-05-26 04:34:00,44.5,39.0,30.13,SE,136,2.0,4.0,81,0.00,,,0.02,weatherlink.com 1.10,2013-05-26 08:34:00,
2013-05-26 04:49:00,44.7,39.0,30.14,West,280,4.0,6.0,80,0.00,,,0.02,weatherlink.com 1.10,2013-05-26 08:49:00,
2013-05-26 05:04:00,44.8,39.0,30.14,SSE,154,0.0,9.0,80,0.00,,,0.02,weatherlink.com 1.10,2013-05-26 09:04:00,
2013-05-26 05:19:00,44.4,40.0,30.14,East,83,2.0,5.0,83,0.00,,,0.02,weatherlink.com 1.10,2013-05-26 09:19:00,
2013-05-26 05:34:00,44.0,39.0,30.14,WSW,237,1.0,10.0,82,0.00,,,0.02,weatherlink.com 1.10,2013-05-26 09:34:00,
2013-05-26 05:49:00,44.2,39.0,30.14,SSE,155,2.0,7.0,82,0.00,,,0.02,weatherlink.com 1.10,2013-05-26 09:49:00,
2013-05-26 06:05:00,44.2,39.0,30.16,WNW,298,3.0,9.0,82,0.00,,,0.02,weatherlink.com 1.10,2013-05-26 10:05:00,
2013-05-26 06:20:00,44.2,39.0,30.17,WNW,298,3.0,10.0,83,0.00,,,0.02,weatherlink.com 1.10,2013-05-26 10:20:00,
2013-05-26 06:35:00,44.2,40.0,30.17,South,177,2.0,6.0,84,0.00,,,0.02,weatherlink.com 1.10,2013-05-26 10:35:00,
2013-05-26 06:50:00,44.5,40.0,30.18,NW,312,3.0,6.0,84,0.00,,,0.02,weatherlink.com 1.10,2013-05-26 10:50:00,
2013-05-26 07:05:00,45.1,40.0,30.18,South,175,2.0,8.0,83,0.00,,,0.02,weatherlink.com 1.10,2013-05-26 11:05:00,
2013-05-26 07:20:00,46.2,41.0,30.18,WNW,300,4.0,9.0,81,0.00,,,0.02,weatherlink.com 1.10,2013-05-26 11:20:00,
2013-05-26 07:35:00,47.1,41.0,30.18,South,185,3.0,10.0,80,0.00,,,0.02,weatherlink.com 1.10,2013-05-26 11:35:00,
2013-05-26 07:50:00,48.8,41.0,30.18,South,184,5.0,7.0,75,0.00,,,0.02,weatherlink.com 1.10,2013-05-26 11:50:00,
2013-05-26 08:05:00,48.6,41.0,30.18,West,275,7.0,8.0,74,0.00,,,0.02,weatherlink.com 1.10,2013-05-26 12:05:00,
2013-05-26 08:20:00,49.0,41.0,30.19,East,82,2.0,9.0,75,0.00,,,0.02,weatherlink.com 1.10,2013-05-26 12:20:00,
2013-05-26 08:35:00,50.8,42.0,30.19,SSW,208,1.0,11.0,71,0.00,,,0.02,weatherlink.com 1.10,2013-05-26 12:35:00,
2013-05-26 08:50:00,51.0,41.0,30.19,South,187,0.0,8.0,69,0.00,,,0.02,weatherlink.com 1.10,2013-05-26 12:50:00,
2013-05-26 09:05:00,50.5,41.0,30.20,WSW,248,3.0,12.0,70,0.00,,,0.02,weatherlink.com 1.10,2013-05-26 13:05:00,
2013-05-26 09:20:00,51.4,42.0,30.20,NNW,333,3.0,11.0,71,0.00,,,0.02,weatherlink.com 1.10,2013-05-26 13:20:00,
2013-05-26 09:35:00,52.1,42.0,30.20,NW,310,2.0,8.0,69,0.00,,,0.02,weatherlink.com 1.10,2013-05-26 13:35:00,
2013-05-26 09:50:00,53.0,43.0,30.20,NNW,341,2.0,10.0,68,0.00,,,0.02,weatherlink.com 1.10,2013-05-26 13:50:00,
2013-05-26 10:05:00,55.5,43.0,30.20,SE,140,3.0,11.0,64,0.00,,,0.00,weatherlink.com 1.10,2013-05-26 14:05:00,
2013-05-26 10:20:00,55.3,43.0,30.21,NNE,17,1.0,9.0,64,0.00,,,0.00,weatherlink.com 1.10,2013-05-26 14:20:00,
2013-05-26 10:35:00,55.4,41.0,30.21,SSE,155,3.0,11.0,58,0.00,,,0.00,weatherlink.com 1.10,2013-05-26 14:35:00,
2013-05-26 10:50:00,55.8,42.0,30.20,South,182,7.0,9.0,60,0.00,,,0.00,weatherlink.com 1.10,2013-05-26 14:50:00,
2013-05-26 11:05:00,56.0,41.0,30.20,NW,311,3.0,14.0,57,0.00,,,0.00,weatherlink.com 1.10,2013-05-26 15:05:00,
2013-05-26 11:20:00,56.8,41.0,30.21,SW,215,3.0,10.0,55,0.00,,,0.00,weatherlink.com 1.10,2013-05-26 15:20:00,
2013-05-26 11:35:00,57.2,40.0,30.21,South,173,4.0,15.0,54,0.00,,,0.00,weatherlink.com 1.10,2013-05-26 15:35:00,
2013-05-26 11:50:00,58.4,40.0,30.22,South,186,3.0,13.0,51,0.00,,,0.00,weatherlink.com 1.10,2013-05-26 15:50:00,
2013-05-26 12:05:00,58.1,41.0,30.22,NW,312,11.0,13.0,54,0.00,,,0.00,weatherlink.com 1.10,2013-05-26 16:05:00,
2013-05-26 12:20:00,58.3,41.0,30.23,WSW,247,4.0,7.0,54,0.00,,,0.00,weatherlink.com 1.10,2013-05-26 16:20:00,
2013-05-26 12:35:00,59.1,42.0,30.22,SSW,198,4.0,8.0,53,0.00,,,0.00,weatherlink.com 1.10,2013-05-26 16:35:00,
2013-05-26 12:50:00,60.9,41.0,30.23,South,188,2.0,15.0,48,0.00,,,0.00,weatherlink.com 1.10,2013-05-26 16:50:00,
2013-05-26 13:05:00,60.9,41.0,30.22,WSW,241,5.0,10.0,48,0.00,,,0.00,weatherlink.com 1.10,2013-05-26 17:05:00,
2013-05-26 13:20:00,61.7,41.0,30.22,SSE,163,5.0,12.0,46,0.00,,,0.00,weatherlink.com 1.10,2013-05-26 17:20:00,
2013-05-26 13:35:00,63.2,39.0,30.22,WNW,291,3.0,12.0,41,0.00,,,0.00,weatherlink.com 1.10,2013-05-26 17:35:00,
2013-05-26 13:50:00,63.5,40.0,30.22,NNW,327,1.0,13.0,43,0.00,,,0.00,weatherlink.com 1.10,2013-05-26 17:50:00,
2013-05-26 14:05:00,63.2,38.0,30.23,SE,144,3.0,11.0,40,0.00,,,0.00,weatherlink.com 1.10,2013-05-26 18:05:00,
2013-05-26 14:20:00,61.3,40.0,30.24,South,170,2.0,5.0,46,0.00,,,0.00,weatherlink.com 1.10,2013-05-26 18:20:00,
2013-05-26 14:36:00,61.2,42.0,30.23,NW,309,6.0,6.0,50,0.00,,,0.00,weatherlink.com 1.10,2013-05-26 18:36:00,
2013-05-26 14:51:00,63.3,42.0,30.24,WSW,254,3.0,7.0,46,0.00,,,0.00,weatherlink.com 1.10,2013-05-26 18:51:00,
2013-05-26 15:06:00,63.4,40.0,30.23,ENE,74,2.0,8.0,43,0.00,,,0.00,weatherlink.com 1.10,2013-05-26 19:06:00,
2013-05-26 15:21:00,63.4,40.0,30.23,NW,310,2.0,12.0,42,0.00,,,0.00,weatherlink.com 1.10,2013-05-26 19:21:00,
2013-05-26 15:36:00,63.6,39.0,30.24,NW,321,2.0,9.0,41,0.00,,,0.00,weatherlink.com 1.10,2013-05-26 19:36:00,
2013-05-26 15:51:00,61.6,37.0,30.25,South,179,7.0,8.0,41,0.00,,,0.00,weatherlink.com 1.10,2013-05-26 19:51:00,
2013-05-26 16:06:00,61.6,38.0,30.25,SSW,192,2.0,10.0,42,0.00,,,0.00,weatherlink.com 1.10,2013-05-26 20:06:00,
2013-05-26 16:21:00,61.0,38.0,30.26,NW,319,3.0,7.0,43,0.00,,,0.00,weatherlink.com 1.10,2013-05-26 20:21:00,
2013-05-26 16:36:00,60.7,40.0,30.26,WNW,286,1.0,7.0,47,0.00,,,0.00,weatherlink.com 1.10,2013-05-26 20:36:00,
2013-05-26 16:51:00,62.1,39.0,30.27,WSW,238,4.0,9.0,42,0.00,,,0.00,weatherlink.com 1.10,2013-05-26 20:51:00,
2013-05-26 17:06:00,62.0,38.0,30.27,WNW,295,3.0,14.0,42,0.00,,,0.00,weatherlink.com 1.10,2013-05-26 21:06:00,
2013-05-26 17:21:00,62.4,39.0,30.26,SSW,194,1.0,9.0,42,0.00,,,0.00,weatherlink.com 1.10,2013-05-26 21:21:00,
2013-05-26 17:36:00,62.1,39.0,30.26,SSW,198,0.0,7.0,43,0.00,,,0.00,weatherlink.com 1.10,2013-05-26 21:36:00,
2013-05-26 17:51:00,61.8,39.0,30.27,West,267,2.0,6.0,43,0.00,,,0.00,weatherlink.com 1.10,2013-05-26 21:51:00,
2013-05-26 18:06:00,61.3,40.0,30.28,WSW,242,4.0,10.0,45,0.00,,,0.00,weatherlink.com 1.10,2013-05-26 22:06:00,
2013-05-26 18:21:00,60.5,36.0,30.28,West,259,2.0,9.0,41,0.00,,,0.00,weatherlink.com 1.10,2013-05-26 22:21:00,
2013-05-26 18:36:00,59.9,38.0,30.29,WNW,292,1.0,7.0,44,0.00,,,0.00,weatherlink.com 1.10,2013-05-26 22:36:00,
2013-05-26 18:51:00,59.4,36.0,30.30,SSW,205,1.0,8.0,42,0.00,,,0.00,weatherlink.com 1.10,2013-05-26 22:51:00,
2013-05-26 19:06:00,58.8,37.0,30.31,SSW,205,6.0,7.0,44,0.00,,,0.00,weatherlink.com 1.10,2013-05-26 23:06:00,
2013-05-26 19:21:00,58.1,36.0,30.32,WSW,240,2.0,5.0,44,0.00,,,0.00,weatherlink.com 1.10,2013-05-26 23:21:00,
2013-05-26 19:36:00,57.4,35.0,30.32,WNW,289,1.0,7.0,43,0.00,,,0.00,weatherlink.com 1.10,2013-05-26 23:36:00,
2013-05-26 19:51:00,56.7,36.0,30.33,SSW,202,1.0,4.0,46,0.00,,,0.00,weatherlink.com 1.10,2013-05-26 23:51:00,
2013-05-26 20:06:00,56.1,36.0,30.33,SSW,211,1.0,8.0,47,0.00,,,0.00,weatherlink.com 1.10,2013-05-27 00:06:00,
2013-05-26 20:21:00,55.5,36.0,30.33,West,260,1.0,4.0,48,0.00,,,0.00,weatherlink.com 1.10,2013-05-27 00:21:00,
2013-05-26 20:36:00,54.7,35.0,30.33,SSW,201,1.0,3.0,48,0.00,,,0.00,weatherlink.com 1.10,2013-05-27 00:36:00,
2013-05-26 20:51:00,53.9,34.0,30.34,SSW,195,0.0,3.0,48,0.00,,,0.00,weatherlink.com 1.10,2013-05-27 00:51:00,
2013-05-26 21:06:00,53.0,35.0,30.34,SSW,195,1.0,1.0,50,0.00,,,0.00,weatherlink.com 1.10,2013-05-27 01:06:00,
2013-05-26 21:21:00,52.1,36.0,30.35,SSW,195,0.0,2.0,55,0.00,,,0.00,weatherlink.com 1.10,2013-05-27 01:21:00,
2013-05-26 21:36:00,51.5,36.0,30.36,SSW,194,2.0,2.0,56,0.00,,,0.00,weatherlink.com 1.10,2013-05-27 01:36:00,
2013-05-26 21:51:00,50.7,36.0,30.36,SSW,194,0.0,2.0,58,0.00,,,0.00,weatherlink.com 1.10,2013-05-27 01:51:00,
2013-05-26 22:06:00,50.2,36.0,30.37,SSW,193,1.0,2.0,59,0.00,,,0.00,weatherlink.com 1.10,2013-05-27 02:06:00,
2013-05-26 22:21:00,50.5,36.0,30.38,SSW,194,0.0,3.0,57,0.00,,,0.00,weatherlink.com 1.10,2013-05-27 02:21:00,
2013-05-26 22:36:00,50.2,36.0,30.38,SSW,194,0.0,1.0,58,0.00,,,0.00,weatherlink.com 1.10,2013-05-27 02:36:00,
2013-05-26 22:51:00,49.4,37.0,30.38,SSW,194,2.0,2.0,62,0.00,,,0.00,weatherlink.com 1.10,2013-05-27 02:51:00,
2013-05-26 23:06:00,48.4,38.0,30.38,SSW,194,0.0,2.0,67,0.00,,,0.00,weatherlink.com 1.10,2013-05-27 03:06:00,
2013-05-26 23:21:00,47.6,37.0,30.38,SSW,194,0.0,2.0,67,0.00,,,0.00,weatherlink.com 1.10,2013-05-27 03:21:00,
2013-05-26 23:36:00,48.0,38.0,30.39,SSW,193,0.0,2.0,68,0.00,,,0.00,weatherlink.com 1.10,2013-05-27 03:36:00,
2013-05-26 23:51:00,48.6,36.0,30.39,South,190,0.0,3.0,63,0.00,,,0.00,weatherlink.com 1.10,2013-05-27 03:51:00,